createdAt,value
2023-01-17T00:00:02.181Z,14.32
2023-01-17T00:00:32.841Z,13.67
2023-01-17T00:01:07.328Z,16.89
2023-01-17T00:01:37.277Z,15.77
2023-01-17T00:01:59.714Z,14.80
2023-01-17T00:02:22.647Z,7.56
2023-01-17T00:02:58.191Z,6.11
2023-01-17T00:03:29.284Z,2.89
2023-01-17T00:04:01.143Z,13.67
2023-01-17T00:04:33.236Z,13.03
2023-01-17T00:04:58.213Z,16.25
2023-01-17T00:05:19.061Z,15.12
2023-01-17T00:05:54.709Z,8.20
2023-01-17T00:06:25.639Z,14.80
2023-01-17T00:06:58.278Z,7.88
2023-01-17T00:07:31.517Z,15.45
2023-01-17T00:08:01.480Z,16.89
2023-01-17T00:08:32.940Z,11.10
2023-01-17T00:09:11.475Z,8.20
2023-01-17T00:09:33.531Z,9.65
2023-01-17T00:09:58.457Z,10.46
2023-01-17T00:10:19.241Z,12.23
2023-01-17T00:10:58.774Z,9.33
2023-01-17T00:11:29.264Z,10.78
2023-01-17T00:12:00.980Z,14.32
2023-01-17T00:12:30.768Z,9.65
2023-01-17T00:13:02.113Z,14.32
2023-01-17T00:13:37.979Z,4.66
2023-01-17T00:14:00.899Z,6.43
2023-01-17T00:14:23.815Z,11.10
2023-01-17T00:14:58.989Z,6.43
2023-01-17T00:15:30.684Z,6.92
2023-01-17T00:16:00.978Z,13.67
2023-01-17T00:16:30.152Z,6.43
2023-01-17T00:17:02.459Z,4.66
2023-01-17T00:17:36.911Z,7.24
2023-01-17T00:17:59.908Z,6.43
2023-01-17T00:18:22.047Z,9.33
2023-01-17T00:18:59.602Z,12.55
2023-01-17T00:19:28.863Z,14.32
2023-01-17T00:20:01.152Z,17.22
2023-01-17T00:20:32.977Z,16.25
2023-01-17T00:20:55.703Z,17.70
2023-01-17T00:21:18.404Z,17.70
2023-01-17T00:21:53.275Z,13.67
2023-01-17T00:22:25.463Z,4.98
2023-01-17T00:23:00.869Z,16.25
2023-01-17T00:23:28.856Z,12.55
2023-01-17T00:24:00.887Z,13.03
2023-01-17T00:24:36.631Z,13.03
2023-01-17T00:25:03.527Z,9.01
2023-01-17T00:25:38.701Z,13.67
2023-01-17T00:26:00.549Z,14.00
2023-01-17T00:26:22.577Z,16.25
2023-01-17T00:26:59.149Z,16.89
2023-01-17T00:27:32.364Z,7.88
2023-01-17T00:28:01.054Z,15.45
2023-01-17T00:28:30.621Z,9.33
2023-01-17T00:29:01.785Z,8.69
2023-01-17T00:29:37.725Z,13.67
2023-01-17T00:30:01.394Z,19.47
2023-01-17T00:30:22.543Z,15.12
2023-01-17T00:30:57.775Z,11.10
2023-01-17T00:31:30.471Z,14.00
2023-01-17T00:32:04.498Z,9.01
2023-01-17T00:32:26.908Z,13.03
2023-01-17T00:33:01.955Z,15.77
2023-01-17T00:33:37.397Z,12.23
2023-01-17T00:34:01.935Z,16.25
2023-01-17T00:34:21.937Z,6.11
2023-01-17T00:34:56.830Z,14.80
2023-01-17T00:35:31.132Z,13.03
2023-01-17T00:36:02.579Z,11.90
2023-01-17T00:36:32.669Z,9.01
2023-01-17T00:36:56.211Z,16.57
2023-01-17T00:37:20.267Z,17.22
2023-01-17T00:37:53.289Z,12.55
2023-01-17T00:38:24.893Z,17.22
2023-01-17T00:38:56.726Z,16.25
2023-01-17T00:39:28.794Z,11.90
2023-01-17T00:40:02.945Z,11.90
2023-01-17T00:40:32.741Z,7.88
2023-01-17T00:40:55.692Z,13.35
2023-01-17T00:41:18.156Z,11.10
2023-01-17T00:41:57.382Z,13.67
2023-01-17T00:42:24.708Z,15.45
2023-01-17T00:42:56.830Z,10.46
2023-01-17T00:43:28.762Z,15.45
2023-01-17T00:44:03.378Z,14.80
2023-01-17T00:44:32.832Z,10.13
2023-01-17T00:44:57.443Z,9.65
2023-01-17T00:45:25.587Z,5.47
2023-01-17T00:45:52.733Z,6.43
2023-01-17T00:46:24.731Z,11.58
2023-01-17T00:47:00.650Z,14.80
2023-01-17T00:47:29.138Z,14.80
2023-01-17T00:48:00.782Z,16.25
2023-01-17T00:48:30.254Z,10.13
2023-01-17T00:49:04.329Z,8.20
2023-01-17T00:49:37.460Z,14.80
2023-01-17T00:49:59.515Z,15.77
2023-01-17T00:50:22.017Z,14.32
2023-01-17T00:50:56.950Z,17.70
2023-01-17T00:51:29.026Z,9.33
2023-01-17T00:52:04.599Z,10.13
2023-01-17T00:52:30.280Z,9.65
2023-01-17T00:53:01.741Z,6.92
2023-01-17T00:53:36.762Z,9.01
2023-01-17T00:54:00.323Z,5.47
2023-01-17T00:54:22.582Z,6.43
2023-01-17T00:54:58.783Z,9.01
2023-01-17T00:55:28.756Z,10.46
2023-01-17T00:56:02.200Z,9.33
2023-01-17T00:56:30.135Z,9.33
2023-01-17T00:57:01.866Z,13.03
2023-01-17T00:57:36.813Z,14.32
2023-01-17T00:57:59.573Z,18.02
2023-01-17T00:58:25.454Z,12.55
2023-01-17T00:58:58.074Z,13.67
2023-01-17T00:59:29.387Z,16.89
2023-01-17T01:00:01.041Z,7.88
2023-01-17T01:00:30.279Z,8.20
2023-01-17T01:01:01.962Z,3.54
2023-01-17T01:01:37.137Z,11.90
2023-01-17T01:02:00.324Z,13.03
2023-01-17T01:02:22.284Z,12.23
2023-01-17T01:02:56.761Z,6.92
2023-01-17T01:03:28.867Z,14.32
2023-01-17T01:04:00.667Z,13.35
2023-01-17T01:04:32.752Z,5.47
2023-01-17T01:05:07.969Z,3.54
2023-01-17T01:05:36.799Z,8.69
2023-01-17T01:05:59.599Z,10.78
2023-01-17T01:06:22.165Z,11.90
2023-01-17T01:06:56.778Z,22.37
2023-01-17T01:07:28.731Z,19.15
2023-01-17T01:08:00.936Z,16.57
2023-01-17T01:08:30.100Z,18.66
2023-01-17T01:09:01.854Z,7.88
2023-01-17T01:09:36.875Z,11.10
2023-01-17T01:10:00.361Z,9.33
2023-01-17T01:10:22.600Z,9.65
2023-01-17T01:10:56.820Z,10.13
2023-01-17T01:11:29.004Z,7.24
2023-01-17T01:12:01.069Z,15.45
2023-01-17T01:12:32.670Z,16.89
2023-01-17T01:12:57.255Z,14.80
2023-01-17T01:13:19.525Z,9.01
2023-01-17T01:13:52.980Z,7.56
2023-01-17T01:14:24.963Z,4.02
2023-01-17T01:15:02.371Z,5.79
2023-01-17T01:15:28.778Z,7.88
2023-01-17T01:16:00.855Z,13.67
2023-01-17T01:16:30.202Z,6.11
2023-01-17T01:17:01.802Z,14.80
2023-01-17T01:17:36.779Z,9.65
2023-01-17T01:17:59.595Z,8.69
2023-01-17T01:18:22.003Z,14.32
2023-01-17T01:18:56.764Z,16.57
2023-01-17T01:19:28.667Z,8.69
2023-01-17T01:20:04.246Z,10.46
2023-01-17T01:20:32.723Z,2.09
2023-01-17T01:20:55.918Z,2.89
2023-01-17T01:21:18.164Z,4.98
2023-01-17T01:21:52.723Z,6.11
2023-01-17T01:22:25.035Z,3.54
2023-01-17T01:22:56.947Z,5.79
2023-01-17T01:23:28.724Z,4.66
2023-01-17T01:24:00.799Z,4.66
2023-01-17T01:24:32.897Z,6.11
2023-01-17T01:24:56.452Z,9.65
2023-01-17T01:25:18.962Z,2.89
2023-01-17T01:25:53.312Z,8.69
2023-01-17T01:26:24.806Z,9.33
2023-01-17T01:26:56.783Z,10.46
2023-01-17T01:27:28.990Z,10.46
2023-01-17T01:28:00.861Z,4.66
2023-01-17T01:28:30.190Z,5.47
2023-01-17T01:28:55.839Z,9.65
2023-01-17T01:29:18.570Z,10.13
2023-01-17T01:29:52.859Z,7.88
2023-01-17T01:30:24.831Z,4.66
2023-01-17T01:30:57.044Z,2.57
2023-01-17T01:31:30.210Z,6.43
2023-01-17T01:32:00.695Z,4.02
2023-01-17T01:32:30.206Z,7.88
2023-01-17T01:33:01.851Z,14.32
2023-01-17T01:33:41.249Z,6.11
2023-01-17T01:34:00.042Z,8.69
2023-01-17T01:34:22.319Z,10.78
2023-01-17T01:34:56.836Z,4.02
2023-01-17T01:35:28.819Z,3.54
2023-01-17T01:36:00.900Z,5.79
2023-01-17T01:36:32.765Z,2.57
2023-01-17T01:36:57.767Z,1.44
2023-01-17T01:37:20.193Z,3.21
2023-01-17T01:37:52.719Z,7.24
2023-01-17T01:38:24.802Z,5.47
2023-01-17T01:38:56.769Z,14.32
2023-01-17T01:39:28.814Z,7.56
2023-01-17T01:40:00.657Z,9.65
2023-01-17T01:40:30.582Z,5.79
2023-01-17T01:41:01.804Z,6.43
2023-01-17T01:41:36.758Z,10.13
2023-01-17T01:41:59.529Z,11.58
2023-01-17T01:42:21.999Z,12.23
2023-01-17T01:42:56.784Z,13.03
2023-01-17T01:43:28.767Z,7.24
2023-01-17T01:44:00.836Z,7.24
2023-01-17T01:44:30.247Z,4.34
2023-01-17T01:45:02.063Z,4.02
2023-01-17T01:45:36.837Z,5.79
2023-01-17T01:45:59.777Z,12.55
2023-01-17T01:46:21.857Z,11.58
2023-01-17T01:46:56.799Z,9.01
2023-01-17T01:47:28.944Z,5.47
2023-01-17T01:48:00.875Z,6.11
2023-01-17T01:48:32.913Z,4.34
2023-01-17T01:48:56.193Z,4.66
2023-01-17T01:49:18.567Z,12.23
2023-01-17T01:49:53.242Z,12.55
2023-01-17T01:50:24.974Z,10.46
2023-01-17T01:50:56.785Z,5.47
2023-01-17T01:51:28.793Z,3.54
2023-01-17T01:52:00.699Z,7.56
2023-01-17T01:52:32.988Z,12.23
2023-01-17T01:52:55.872Z,15.45
2023-01-17T01:53:18.293Z,10.46
2023-01-17T01:53:52.753Z,19.47
2023-01-17T01:54:24.829Z,13.03
2023-01-17T01:54:51.291Z,10.78
2023-01-17T01:55:29.258Z,12.23
2023-01-17T01:56:03.162Z,7.24
2023-01-17T01:56:33.101Z,8.69
2023-01-17T01:56:55.703Z,7.56
2023-01-17T01:57:18.823Z,6.43
2023-01-17T01:57:54.279Z,4.66
2023-01-17T01:58:25.704Z,8.20
2023-01-17T01:58:57.454Z,3.54
2023-01-17T01:59:29.601Z,9.33
2023-01-17T02:00:01.134Z,15.45
2023-01-17T02:00:30.388Z,5.47
2023-01-17T02:01:12.830Z,8.20
2023-01-17T02:01:31.681Z,4.02
2023-01-17T02:02:01.743Z,8.69
2023-01-17T02:02:24.154Z,4.02
2023-01-17T02:02:56.905Z,6.11
2023-01-17T02:03:29.062Z,2.09
2023-01-17T02:04:01.304Z,3.21
2023-01-17T02:04:31.057Z,10.78
2023-01-17T02:05:04.546Z,10.46
2023-01-17T02:05:40.834Z,10.13
2023-01-17T02:05:59.711Z,9.65
2023-01-17T02:06:23.423Z,2.89
2023-01-17T02:06:58.927Z,6.43
2023-01-17T02:07:29.120Z,13.35
2023-01-17T02:08:00.763Z,9.65
2023-01-17T02:08:30.266Z,5.47
2023-01-17T02:09:01.831Z,7.56
2023-01-17T02:09:37.330Z,13.03
2023-01-17T02:09:59.609Z,10.46
2023-01-17T02:10:21.979Z,8.69
2023-01-17T02:10:57.111Z,11.58
2023-01-17T02:11:28.667Z,7.24
2023-01-17T02:12:01.128Z,10.46
2023-01-17T02:12:30.466Z,11.10
2023-01-17T02:13:03.997Z,21.88
2023-01-17T02:13:37.138Z,7.24
2023-01-17T02:13:59.877Z,7.24
2023-01-17T02:14:22.960Z,13.35
2023-01-17T02:14:59.930Z,12.23
2023-01-17T02:15:29.488Z,12.23
2023-01-17T02:16:02.381Z,5.47
2023-01-17T02:16:31.790Z,7.24
2023-01-17T02:17:02.308Z,7.24
2023-01-17T02:17:37.848Z,14.32
2023-01-17T02:18:00.187Z,16.89
2023-01-17T02:18:23.062Z,19.47
2023-01-17T02:18:56.994Z,16.89
2023-01-17T02:19:29.103Z,13.67
2023-01-17T02:20:07.754Z,6.43
2023-01-17T02:20:30.190Z,12.23
2023-01-17T02:21:02.275Z,9.65
2023-01-17T02:21:36.772Z,1.77
2023-01-17T02:21:59.528Z,2.57
2023-01-17T02:22:21.913Z,5.47
2023-01-17T02:22:56.915Z,13.67
2023-01-17T02:23:28.956Z,6.92
2023-01-17T02:24:00.680Z,11.90
2023-01-17T02:24:32.895Z,11.90
2023-01-17T02:25:04.904Z,17.22
2023-01-17T02:25:37.110Z,9.65
2023-01-17T02:25:59.791Z,13.03
2023-01-17T02:26:23.657Z,11.90
2023-01-17T02:26:56.659Z,11.58
2023-01-17T02:27:29.130Z,13.35
2023-01-17T02:28:01.068Z,4.02
2023-01-17T02:28:32.965Z,12.23
2023-01-17T02:29:04.793Z,6.43
2023-01-17T02:29:36.688Z,1.77
2023-01-17T02:30:00.758Z,4.66
2023-01-17T02:30:23.599Z,4.02
2023-01-17T02:30:57.158Z,6.11
2023-01-17T02:31:28.806Z,5.79
2023-01-17T02:32:01.071Z,6.11
2023-01-17T02:32:32.628Z,2.89
2023-01-17T02:32:55.593Z,3.54
2023-01-17T02:33:19.761Z,5.47
2023-01-17T02:33:52.760Z,11.10
2023-01-17T02:34:24.887Z,8.20
2023-01-17T02:34:56.864Z,5.79
2023-01-17T02:35:30.165Z,4.34
2023-01-17T02:36:00.632Z,4.66
2023-01-17T02:36:32.783Z,6.43
2023-01-17T02:36:56.210Z,6.43
2023-01-17T02:37:20.547Z,7.88
2023-01-17T02:37:52.836Z,3.54
2023-01-17T02:38:24.847Z,2.89
2023-01-17T02:38:56.676Z,7.24
2023-01-17T02:39:29.581Z,4.66
2023-01-17T02:40:00.694Z,9.65
2023-01-17T02:40:30.155Z,7.88
2023-01-17T02:41:01.699Z,7.24
2023-01-17T02:41:36.747Z,12.23
2023-01-17T02:41:59.478Z,13.03
2023-01-17T02:42:21.879Z,12.55
2023-01-17T02:42:56.771Z,15.12
2023-01-17T02:43:28.721Z,12.55
2023-01-17T02:44:00.633Z,10.78
2023-01-17T02:44:30.198Z,10.46
2023-01-17T02:45:01.965Z,10.46
2023-01-17T02:45:36.856Z,15.45
2023-01-17T02:46:00.285Z,9.65
2023-01-17T02:46:22.624Z,7.88
2023-01-17T02:46:56.829Z,4.02
2023-01-17T02:47:28.910Z,4.02
2023-01-17T02:48:00.948Z,7.24
2023-01-17T02:48:30.301Z,6.11
2023-01-17T02:49:01.734Z,5.79
2023-01-17T02:49:36.895Z,13.67
2023-01-17T02:49:59.548Z,4.98
2023-01-17T02:50:21.978Z,9.65
2023-01-17T02:50:56.772Z,12.23
2023-01-17T02:51:28.806Z,13.03
2023-01-17T02:52:01.685Z,7.88
2023-01-17T02:52:32.965Z,6.43
2023-01-17T02:52:55.892Z,10.13
2023-01-17T02:53:18.207Z,6.92
2023-01-17T02:53:53.327Z,3.54
2023-01-17T02:54:24.684Z,7.56
2023-01-17T02:54:56.691Z,7.24
2023-01-17T02:55:28.928Z,13.03
2023-01-17T02:56:00.684Z,18.02
2023-01-17T02:56:33.215Z,20.92
2023-01-17T02:56:56.732Z,14.32
2023-01-17T02:57:19.276Z,13.03
2023-01-17T02:57:52.702Z,14.32
2023-01-17T02:58:24.887Z,12.23
2023-01-17T02:58:56.801Z,11.58
2023-01-17T02:59:31.161Z,12.55
2023-01-17T03:00:01.210Z,18.34
2023-01-17T03:00:32.844Z,15.12
2023-01-17T03:00:56.527Z,15.45
2023-01-17T03:01:18.774Z,7.88
2023-01-17T03:01:53.094Z,16.25
2023-01-17T03:02:41.858Z,14.80
2023-01-17T03:03:04.317Z,13.03
2023-01-17T03:03:26.632Z,11.58
2023-01-17T03:04:01.357Z,12.55
2023-01-17T03:04:32.730Z,13.03
2023-01-17T03:05:04.779Z,18.02
2023-01-17T03:05:36.875Z,18.34
2023-01-17T03:05:59.748Z,14.80
2023-01-17T03:06:23.937Z,22.69
2023-01-17T03:06:57.259Z,14.80
2023-01-17T03:07:30.286Z,10.46
2023-01-17T03:08:01.527Z,19.79
2023-01-17T03:08:33.010Z,11.90
2023-01-17T03:08:55.766Z,16.25
2023-01-17T03:09:18.334Z,17.22
2023-01-17T03:09:53.116Z,16.25
2023-01-17T03:10:25.249Z,17.22
2023-01-17T03:10:56.860Z,21.88
2023-01-17T03:11:31.799Z,20.92
2023-01-17T03:12:01.006Z,12.23
2023-01-17T03:12:30.756Z,7.24
2023-01-17T03:13:03.115Z,7.88
2023-01-17T03:13:38.108Z,16.25
2023-01-17T03:14:00.701Z,13.03
2023-01-17T03:14:31.055Z,14.00
2023-01-17T03:14:57.020Z,17.70
2023-01-17T03:15:30.753Z,8.69
2023-01-17T03:16:01.022Z,16.25
2023-01-17T03:16:30.864Z,7.24
2023-01-17T03:17:01.844Z,13.03
2023-01-17T03:17:37.082Z,13.35
2023-01-17T03:18:01.228Z,16.57
2023-01-17T03:18:22.204Z,13.03
2023-01-17T03:18:57.859Z,13.67
2023-01-17T03:19:28.757Z,13.67
2023-01-17T03:20:03.998Z,13.67
2023-01-17T03:20:36.291Z,19.47
2023-01-17T03:20:58.713Z,14.80
2023-01-17T03:21:37.049Z,11.90
2023-01-17T03:21:59.483Z,9.33
2023-01-17T03:22:22.055Z,7.88
2023-01-17T03:22:57.545Z,8.20
2023-01-17T03:23:29.209Z,11.90
2023-01-17T03:24:00.989Z,8.20
2023-01-17T03:24:32.971Z,12.23
2023-01-17T03:25:02.581Z,13.67
2023-01-17T03:25:37.138Z,16.89
2023-01-17T03:26:03.638Z,18.66
2023-01-17T03:26:23.711Z,16.57
2023-01-17T03:26:56.721Z,18.66
2023-01-17T03:27:29.132Z,16.25
2023-01-17T03:28:00.832Z,18.66
2023-01-17T03:28:30.778Z,25.91
2023-01-17T03:29:02.184Z,27.68
2023-01-17T03:29:36.801Z,18.02
2023-01-17T03:29:59.381Z,27.03
2023-01-17T03:30:22.008Z,19.79
2023-01-17T03:30:57.181Z,16.57
2023-01-17T03:31:29.473Z,19.15
2023-01-17T03:32:00.838Z,21.24
2023-01-17T03:32:30.333Z,21.56
2023-01-17T03:33:01.859Z,20.92
2023-01-17T03:33:42.184Z,12.23
2023-01-17T03:34:09.500Z,15.12
2023-01-17T03:34:41.259Z,19.15
2023-01-17T03:35:03.882Z,18.02
2023-01-17T03:35:26.985Z,22.69
2023-01-17T03:36:08.314Z,19.47
2023-01-17T03:36:30.108Z,15.45
2023-01-17T03:37:02.026Z,16.57
2023-01-17T03:37:39.162Z,21.24
2023-01-17T03:37:59.801Z,15.12
2023-01-17T03:38:22.212Z,20.60
2023-01-17T03:38:56.733Z,14.32
2023-01-17T03:39:28.759Z,18.66
2023-01-17T03:40:00.813Z,14.32
2023-01-17T03:40:30.553Z,14.80
2023-01-17T03:41:01.876Z,14.80
2023-01-17T03:41:36.743Z,16.25
2023-01-17T03:41:59.518Z,15.45
2023-01-17T03:42:21.756Z,16.89
2023-01-17T03:42:56.688Z,19.15
2023-01-17T03:43:28.749Z,21.24
2023-01-17T03:44:00.683Z,22.37
2023-01-17T03:44:30.672Z,18.34
2023-01-17T03:45:02.201Z,19.47
2023-01-17T03:45:36.931Z,16.57
2023-01-17T03:45:59.466Z,21.88
2023-01-17T03:46:21.724Z,18.02
2023-01-17T03:46:56.760Z,16.57
2023-01-17T03:47:29.024Z,12.55
2023-01-17T03:48:00.877Z,14.32
2023-01-17T03:48:30.120Z,16.25
2023-01-17T03:49:01.859Z,13.03
2023-01-17T03:49:37.285Z,18.66
2023-01-17T03:50:00.973Z,12.23
2023-01-17T03:50:23.203Z,12.23
2023-01-17T03:50:57.059Z,12.55
2023-01-17T03:51:29.008Z,16.89
2023-01-17T03:52:01.020Z,15.77
2023-01-17T03:52:32.882Z,15.45
2023-01-17T03:52:55.587Z,16.57
2023-01-17T03:53:18.130Z,18.34
2023-01-17T03:53:52.770Z,25.58
2023-01-17T03:54:24.808Z,21.88
2023-01-17T03:54:56.894Z,18.34
2023-01-17T03:55:29.712Z,17.22
2023-01-17T03:56:00.858Z,12.55
2023-01-17T03:56:30.240Z,11.90
2023-01-17T03:57:01.903Z,14.00
2023-01-17T03:57:36.765Z,16.89
2023-01-17T03:58:00.449Z,12.23
2023-01-17T03:58:28.275Z,15.12
2023-01-17T03:58:56.645Z,19.47
2023-01-17T03:59:30.075Z,17.22
2023-01-17T04:00:01.284Z,14.32
2023-01-17T04:00:30.345Z,16.57
2023-01-17T04:01:07.476Z,16.25
2023-01-17T04:01:37.260Z,14.32
2023-01-17T04:01:59.918Z,13.67
2023-01-17T04:02:22.196Z,14.00
2023-01-17T04:02:56.696Z,22.37
2023-01-17T04:03:30.408Z,18.02
2023-01-17T04:04:00.815Z,16.89
2023-01-17T04:04:30.816Z,19.15
2023-01-17T04:05:02.051Z,12.55
2023-01-17T04:05:36.851Z,11.90
2023-01-17T04:05:59.852Z,17.70
2023-01-17T04:06:22.079Z,15.77
2023-01-17T04:07:01.807Z,15.12
2023-01-17T04:07:30.876Z,15.77
2023-01-17T04:08:00.854Z,19.15
2023-01-17T04:08:31.071Z,19.15
2023-01-17T04:09:01.789Z,15.45
2023-01-17T04:09:36.745Z,15.45
2023-01-17T04:09:59.500Z,14.00
2023-01-17T04:10:21.900Z,13.03
2023-01-17T04:10:56.800Z,12.23
2023-01-17T04:11:28.701Z,12.23
2023-01-17T04:12:00.870Z,4.66
2023-01-17T04:12:31.546Z,9.01
2023-01-17T04:13:02.190Z,9.65
2023-01-17T04:13:36.725Z,13.03
2023-01-17T04:14:00.000Z,12.23
2023-01-17T04:14:23.007Z,9.01
2023-01-17T04:14:56.802Z,10.46
2023-01-17T04:15:28.870Z,8.69
2023-01-17T04:16:01.465Z,11.58
2023-01-17T04:16:32.443Z,9.65
2023-01-17T04:17:02.011Z,10.13
2023-01-17T04:17:36.771Z,8.20
2023-01-17T04:18:00.228Z,4.98
2023-01-17T04:18:26.630Z,12.23
2023-01-17T04:18:51.621Z,6.43
2023-01-17T04:19:30.889Z,11.90
2023-01-17T04:20:04.855Z,8.69
2023-01-17T04:20:32.751Z,6.11
2023-01-17T04:21:08.241Z,3.54
2023-01-17T04:21:37.597Z,12.23
2023-01-17T04:21:59.774Z,7.88
2023-01-17T04:22:23.283Z,4.98
2023-01-17T04:22:56.791Z,6.92
2023-01-17T04:23:29.612Z,11.90
2023-01-17T04:24:00.870Z,7.88
2023-01-17T04:24:30.197Z,8.69
2023-01-17T04:25:02.970Z,6.43
2023-01-17T04:25:37.655Z,12.55
2023-01-17T04:26:00.328Z,9.65
2023-01-17T04:26:22.745Z,3.21
2023-01-17T04:26:58.611Z,6.92
2023-01-17T04:27:28.756Z,6.92
2023-01-17T04:28:11.061Z,5.79
2023-01-17T04:28:30.045Z,6.43
2023-01-17T04:29:01.894Z,6.43
2023-01-17T04:29:36.661Z,2.89
2023-01-17T04:29:59.602Z,8.69
2023-01-17T04:30:21.950Z,7.88
2023-01-17T04:30:56.765Z,1.44
2023-01-17T04:31:30.390Z,7.24
2023-01-17T04:32:03.184Z,6.11
2023-01-17T04:32:34.479Z,7.56
2023-01-17T04:32:56.600Z,4.02
2023-01-17T04:33:18.878Z,6.43
2023-01-17T04:33:52.873Z,9.33
2023-01-17T04:34:25.081Z,7.24
2023-01-17T04:34:56.709Z,11.10
2023-01-17T04:35:29.463Z,4.34
2023-01-17T04:36:00.863Z,7.88
2023-01-17T04:36:29.778Z,11.90
2023-01-17T04:37:02.669Z,11.90
2023-01-17T04:37:54.466Z,11.90
2023-01-17T04:38:24.907Z,6.92
2023-01-17T04:38:57.425Z,8.69
2023-01-17T04:39:29.184Z,7.88
2023-01-17T04:40:01.400Z,19.79
2023-01-17T04:40:32.752Z,6.11
2023-01-17T04:41:02.007Z,14.32
2023-01-17T04:41:40.093Z,11.90
2023-01-17T04:42:00.270Z,13.67
2023-01-17T04:42:23.933Z,13.35
2023-01-17T04:42:56.840Z,9.33
2023-01-17T04:43:29.411Z,10.46
2023-01-17T04:44:00.782Z,12.23
2023-01-17T04:44:30.248Z,14.80
2023-01-17T04:45:03.093Z,14.80
2023-01-17T04:45:37.477Z,8.69
2023-01-17T04:45:59.946Z,12.23
2023-01-17T04:46:22.015Z,11.90
2023-01-17T04:46:59.257Z,13.03
2023-01-17T04:47:29.641Z,13.67
2023-01-17T04:48:01.604Z,12.23
2023-01-17T04:48:33.218Z,16.89
2023-01-17T04:48:59.647Z,11.10
2023-01-17T04:49:21.945Z,8.69
2023-01-17T04:49:52.734Z,11.10
2023-01-17T04:50:24.866Z,11.90
2023-01-17T04:50:56.776Z,14.32
2023-01-17T04:51:28.822Z,14.00
2023-01-17T04:52:01.325Z,18.02
2023-01-17T04:52:30.711Z,14.00
2023-01-17T04:53:02.186Z,9.33
2023-01-17T04:53:37.571Z,9.33
2023-01-17T04:53:59.619Z,9.65
2023-01-17T04:54:29.841Z,14.80
2023-01-17T04:54:51.325Z,13.03
2023-01-17T04:55:28.930Z,12.55
2023-01-17T04:56:00.844Z,13.67
2023-01-17T04:56:30.646Z,15.12
2023-01-17T04:57:03.396Z,13.67
2023-01-17T04:57:38.174Z,11.10
2023-01-17T04:57:59.542Z,13.67
2023-01-17T04:58:21.871Z,13.03
2023-01-17T04:58:56.802Z,14.00
2023-01-17T04:59:28.910Z,11.90
2023-01-17T05:00:01.151Z,13.67
2023-01-17T05:00:30.171Z,13.67
2023-01-17T05:01:01.786Z,12.55
2023-01-17T05:01:38.635Z,16.89
2023-01-17T05:02:04.663Z,13.67
2023-01-17T05:02:24.623Z,13.35
2023-01-17T05:02:56.722Z,14.32
2023-01-17T05:03:28.626Z,12.23
2023-01-17T05:04:00.647Z,5.47
2023-01-17T05:04:30.167Z,7.24
2023-01-17T05:05:01.934Z,10.78
2023-01-17T05:05:38.928Z,11.58
2023-01-17T05:05:59.373Z,7.24
2023-01-17T05:06:21.826Z,4.66
2023-01-17T05:06:56.985Z,4.66
2023-01-17T05:07:28.759Z,12.23
2023-01-17T05:08:00.746Z,5.47
2023-01-17T05:08:30.131Z,4.98
2023-01-17T05:09:01.863Z,6.11
2023-01-17T05:09:36.708Z,10.46
2023-01-17T05:09:59.739Z,6.11
2023-01-17T05:10:22.125Z,11.10
2023-01-17T05:10:56.766Z,9.01
2023-01-17T05:11:28.968Z,6.11
2023-01-17T05:12:00.983Z,2.89
2023-01-17T05:12:34.566Z,4.98
2023-01-17T05:13:01.970Z,4.98
2023-01-17T05:13:36.715Z,7.24
2023-01-17T05:13:59.447Z,4.66
2023-01-17T05:14:22.094Z,13.67
2023-01-17T05:14:56.825Z,6.11
2023-01-17T05:15:29.208Z,6.11
2023-01-17T05:16:00.860Z,7.24
2023-01-17T05:16:30.211Z,9.33
2023-01-17T05:17:06.095Z,9.01
2023-01-17T05:17:37.773Z,12.23
2023-01-17T05:17:59.760Z,9.33
2023-01-17T05:18:22.122Z,7.24
2023-01-17T05:18:57.294Z,11.58
2023-01-17T05:19:28.846Z,10.46
2023-01-17T05:20:00.902Z,4.66
2023-01-17T05:20:30.177Z,7.88
2023-01-17T05:21:01.965Z,11.10
2023-01-17T05:21:36.827Z,2.89
2023-01-17T05:22:00.844Z,1.12
2023-01-17T05:22:23.314Z,4.66
2023-01-17T05:22:56.879Z,5.79
2023-01-17T05:23:28.858Z,6.92
2023-01-17T05:24:00.632Z,11.90
2023-01-17T05:24:30.262Z,12.55
2023-01-17T05:25:01.938Z,6.43
2023-01-17T05:25:36.934Z,16.57
2023-01-17T05:26:00.284Z,14.80
2023-01-17T05:26:22.128Z,15.77
2023-01-17T05:26:56.741Z,6.43
2023-01-17T05:27:29.685Z,9.33
2023-01-17T05:28:01.151Z,9.01
2023-01-17T05:28:32.737Z,8.69
2023-01-17T05:28:56.230Z,10.46
2023-01-17T05:29:18.505Z,4.02
2023-01-17T05:29:53.012Z,10.13
2023-01-17T05:30:22.773Z,14.32
2023-01-17T05:31:00.349Z,13.03
2023-01-17T05:31:29.416Z,13.67
2023-01-17T05:32:00.908Z,5.47
2023-01-17T05:32:39.539Z,3.54
2023-01-17T05:32:59.770Z,11.58
2023-01-17T05:33:37.298Z,13.67
2023-01-17T05:33:59.924Z,12.23
2023-01-17T05:34:22.148Z,13.35
2023-01-17T05:35:00.456Z,10.78
2023-01-17T05:35:28.843Z,6.11
2023-01-17T05:36:00.668Z,2.09
2023-01-17T05:36:30.525Z,13.35
2023-01-17T05:37:06.876Z,14.00
2023-01-17T05:38:02.609Z,13.03
2023-01-17T05:38:40.767Z,6.11
2023-01-17T05:39:05.687Z,10.46
2023-01-17T05:39:26.879Z,11.58
2023-01-17T05:40:04.388Z,6.43
2023-01-17T05:40:32.845Z,9.33
2023-01-17T05:40:57.802Z,4.34
2023-01-17T05:41:18.682Z,11.58
2023-01-17T05:41:52.810Z,15.77
2023-01-17T05:42:24.718Z,10.13
2023-01-17T05:42:57.101Z,6.43
2023-01-17T05:43:28.966Z,5.47
2023-01-17T05:44:00.862Z,4.98
2023-01-17T05:44:32.772Z,11.10
2023-01-17T05:44:55.693Z,6.43
2023-01-17T05:45:18.454Z,9.65
2023-01-17T05:45:52.846Z,8.69
2023-01-17T05:46:24.776Z,10.78
2023-01-17T05:46:56.655Z,11.10
2023-01-17T05:47:40.152Z,11.90
2023-01-17T05:48:00.816Z,9.65
2023-01-17T05:48:30.223Z,6.92
2023-01-17T05:49:01.911Z,4.66
2023-01-17T05:49:36.679Z,4.02
2023-01-17T05:49:59.423Z,9.33
2023-01-17T05:50:21.868Z,14.80
2023-01-17T05:51:00.165Z,2.89
2023-01-17T05:51:28.745Z,4.98
2023-01-17T05:52:00.971Z,7.88
2023-01-17T05:52:33.058Z,2.57
2023-01-17T05:52:56.551Z,2.09
2023-01-17T05:53:21.476Z,2.89
2023-01-17T05:53:52.683Z,3.54
2023-01-17T05:54:24.800Z,2.89
2023-01-17T05:54:56.927Z,4.34
2023-01-17T05:55:28.676Z,3.54
2023-01-17T05:56:00.744Z,10.46
2023-01-17T05:56:32.782Z,6.92
2023-01-17T05:56:59.027Z,9.33
2023-01-17T05:57:18.824Z,5.79
2023-01-17T05:57:54.307Z,6.43
2023-01-17T05:58:24.914Z,6.43
2023-01-17T05:58:56.806Z,6.43
2023-01-17T05:59:36.908Z,7.88
2023-01-17T06:00:01.657Z,4.02
2023-01-17T06:00:30.227Z,13.35
2023-01-17T06:01:02.145Z,12.55
2023-01-17T06:01:36.717Z,6.11
2023-01-17T06:02:00.153Z,7.24
2023-01-17T06:02:22.710Z,6.43
2023-01-17T06:02:56.852Z,5.47
2023-01-17T06:03:31.159Z,5.47
2023-01-17T06:04:00.795Z,6.43
2023-01-17T06:04:30.179Z,12.23
2023-01-17T06:05:03.521Z,6.11
2023-01-17T06:05:36.743Z,9.01
2023-01-17T06:05:59.670Z,3.54
2023-01-17T06:06:22.119Z,9.01
2023-01-17T06:06:56.758Z,8.20
2023-01-17T06:07:29.340Z,4.34
2023-01-17T06:08:00.715Z,7.88
2023-01-17T06:08:33.641Z,6.11
2023-01-17T06:08:56.238Z,10.46
2023-01-17T06:09:18.732Z,6.92
2023-01-17T06:09:53.043Z,1.77
2023-01-17T06:10:24.813Z,8.69
2023-01-17T06:10:56.798Z,8.69
2023-01-17T06:11:28.818Z,4.98
2023-01-17T06:12:00.961Z,13.67
2023-01-17T06:12:32.813Z,15.12
2023-01-17T06:13:03.434Z,11.10
2023-01-17T06:13:36.807Z,14.32
2023-01-17T06:13:59.955Z,9.65
2023-01-17T06:14:22.295Z,5.79
2023-01-17T06:14:57.019Z,4.66
2023-01-17T06:15:28.850Z,4.66
2023-01-17T06:16:00.757Z,5.47
2023-01-17T06:16:30.361Z,7.24
2023-01-17T06:17:01.919Z,5.47
2023-01-17T06:17:38.241Z,6.11
2023-01-17T06:17:59.344Z,6.43
2023-01-17T06:18:21.689Z,2.09
2023-01-17T06:19:02.287Z,7.24
2023-01-17T06:19:28.733Z,4.02
2023-01-17T06:20:01.061Z,3.21
2023-01-17T06:20:32.749Z,2.57
2023-01-17T06:21:02.141Z,6.11
2023-01-17T06:21:36.915Z,13.03
2023-01-17T06:21:59.719Z,5.79
2023-01-17T06:22:22.172Z,1.77
2023-01-17T06:22:56.815Z,4.98
2023-01-17T06:23:28.727Z,4.66
2023-01-17T06:24:04.061Z,4.34
2023-01-17T06:24:30.261Z,8.69
2023-01-17T06:25:01.941Z,7.24
2023-01-17T06:25:36.737Z,5.47
2023-01-17T06:26:00.009Z,2.57
2023-01-17T06:26:22.448Z,2.89
2023-01-17T06:27:28.641Z,3.54
2023-01-17T06:28:00.831Z,1.44
2023-01-17T06:28:30.469Z,4.66
2023-01-17T06:29:01.926Z,4.66
2023-01-17T06:29:36.766Z,1.44
2023-01-17T06:29:59.907Z,1.77
2023-01-17T06:30:22.323Z,2.89
2023-01-17T06:30:56.970Z,5.47
2023-01-17T06:31:28.866Z,7.88
2023-01-17T06:32:01.826Z,4.34
2023-01-17T06:32:30.169Z,4.02
2023-01-17T06:33:02.018Z,3.54
2023-01-17T06:33:38.221Z,2.57